Time;durP1;ratioP1;P1;durP2;ratioP2;P2;SDS_P1;SDS_P2;PMS_P1;PMS_P2;Temp;Humidity;BMP_temperature;BMP_pressure;BME280_temperature;BME280_humidity;BME280_pressure;Samples;Min_cycle;Max_cycle;Signal;HPM_P1;HPM_P2
2022/03/31 07:10:47;;;;;;;;;;;;;;;;;;;;;
2022/03/31 09:06:16;;;;;;;;;7.75;7.75;;;;;6.50;64.69;99872.88;6278644;22;45544;-88
2022/03/31 10:17:00;;;;;;;;;2.75;2.75;;;;;6.46;64.80;99928.63;6209369;22;46216;31
2022/03/31 10:25:46;;;;;;;;;1.75;1.75;;;;;6.62;65.29;99904.22;6215781;22;45618;-79
2022/03/31 10:28:14;;;;;;;;;5.00;5.00;;;;;6.89;64.95;99924.22;6244823;22;45750;-79
2022/03/31 10:31:17;;;;;;;;;;;;;;;;;;;;;
2022/03/31 10:33:52;;;;;;;;;5.50;4.50;;;;;6.89;64.39;99877.13;6244170;22;71905;-80
2022/03/31 10:36:48;;;;;;;;;;;;;;;;;;;;;
2022/03/31 10:39:34;;;;;;;;;;;;;;;;;;;;;
2022/03/31 10:42:16;;;;;;;;;1.75;1.00;;;;;7.12;63.07;99911.09;6243885;22;68628;-83
2022/03/31 10:45:12;;;;;;;;;10.00;6.00;;;;;6.91;63.32;99880.63;6245463;22;45183;-82
2022/03/31 10:52:23;;;;;;;;;;;;;;;;;;;;;
2022/03/31 10:58:50;;;;;;;;;;;;;;;;;;;;;
2022/03/31 11:02:07;;;;;;;;;;;;;;;;;;;;;
2022/03/31 11:15:18;;;;;;;;;7.25;6.25;;;;;7.69;60.11;99897.75;6035606;23;45521;-80
2022/03/31 11:23:09;;;;;;;;;;;;;;;;;;;;;
2022/03/31 11:29:03;;;;;;;;;6.75;6.25;;;;;7.84;59.35;99889.78;5904887;24;45935;-82
2022/03/31 11:31:53;;;;;;;;;;;;;;;;;;;;;
2022/03/31 11:38:35;;;;;;;;;2.75;2.50;;;;;8.01;57.92;99884.44;6062920;23;45552;-81
2022/03/31 11:44:40;;;;;;;;;;;;;;;;;;;;;
2022/03/31 11:47:04;;;;;;;;;4.00;3.75;;;;;7.81;56.77;99868.84;6059083;23;45532;-83
2022/03/31 11:50:03;;;;;;;;;;;;;;;;;;;;;
2022/03/31 11:52:45;;;;;;;;;4.00;4.00;;;;;7.83;56.75;99910.75;6240798;22;74469;-81
2022/03/31 11:55:59;;;;;;;;;;;;;;;;;;;;;
2022/03/31 11:58:17;;;;;;;;;4.50;3.00;;;;;7.58;56.84;99894.31;6234200;22;45328;-81
2022/03/31 12:00:50;;;;;;;;;4.50;4.00;;;;;7.79;57.72;99923.00;6243929;22;45304;-81
2022/03/31 12:03:18;;;;;;;;;4.00;4.00;;;;;7.85;57.45;99922.09;6243837;22;46244;-81
2022/03/31 12:05:56;;;;;;;;;6.75;3.75;;;;;7.91;57.26;99917.72;6243762;22;45175;-81
2022/03/31 12:08:23;;;;;;;;;6.25;6.25;;;;;8.03;56.47;99932.47;6241349;22;45464;-79
2022/03/31 12:10:54;;;;;;;;;3.50;3.50;;;;;7.92;56.71;99905.47;6243062;22;45486;-81
2022/03/31 12:13:21;;;;;;;;;1.25;1.25;;;;;7.85;56.42;99895.91;6241437;22;47017;-81
2022/03/31 12:15:47;;;;;;;;;3.25;3.25;;;;;7.84;56.45;99900.28;6242416;22;45719;-81
2022/03/31 12:18:17;;;;;;;;;6.25;6.00;;;;;7.93;56.56;99905.44;6244171;22;45436;-81
2022/03/31 12:20:46;;;;;;;;;5.75;5.75;;;;;8.05;56.71;99922.84;6217428;22;45901;-81
2022/03/31 12:23:22;;;;;;;;;6.25;6.00;;;;;8.05;56.74;99908.88;6242801;22;47976;-81
2022/03/31 12:25:50;;;;;;;;;3.00;2.00;;;;;8.21;56.79;99920.13;6245275;22;45410;-79
2022/03/31 12:28:18;;;;;;;;;4.00;4.00;;;;;8.15;56.04;99902.66;6246350;22;45717;-81
2022/03/31 12:30:51;;;;;;;;;2.25;2.25;;;;;8.34;55.87;99921.75;6246238;22;45494;-81
2022/03/31 12:33:28;;;;;;;;;2.00;2.00;;;;;8.48;55.60;99924.31;6244210;22;47185;-81
2022/03/31 12:36:08;;;;;;;;;3.00;2.25;;;;;8.69;55.02;99923.28;6243593;22;45315;-81
2022/03/31 12:38:51;;;;;;;;;8.00;5.75;;;;;8.98;54.39;99915.97;6244810;22;45472;-79
2022/03/31 12:41:39;;;;;;;;;3.25;3.25;;;;;9.15;54.05;99905.28;6217923;22;45427;-79
2022/03/31 12:44:10;;;;;;;;;3.75;3.75;;;;;9.42;53.35;99905.84;6243803;22;48072;-79
2022/03/31 12:46:38;;;;;;;;;7.25;7.00;;;;;9.70;53.09;99911.56;6217473;22;45839;-81
2022/03/31 12:49:09;;;;;;;;;6.50;4.25;;;;;9.87;52.34;99906.09;6218155;22;45370;-80
2022/03/31 12:51:50;;;;;;;;;4.75;4.00;;;;;10.06;52.43;99910.19;6245388;22;45244;-81
2022/03/31 12:54:32;;;;;;;;;5.00;4.00;;;;;10.35;50.19;99914.16;6219012;22;47142;-80
2022/03/31 12:57:06;;;;;;;;;5.25;4.00;;;;;10.34;50.67;99894.91;6217956;22;45722;-80
2022/03/31 12:59:35;;;;;;;;;6.00;6.00;;;;;10.31;50.51;99892.28;6217391;22;45323;-80
2022/03/31 13:02:12;;;;;;;;;3.00;3.00;;;;;10.22;49.91;99896.81;6245244;22;45382;-80
2022/03/31 13:04:47;;;;;;;;;5.00;5.00;;;;;10.04;49.99;99900.59;6218757;22;47426;-80
2022/03/31 13:07:19;;;;;;;;;7.50;5.75;;;;;9.82;49.38;99900.91;6218487;22;45309;-80
2022/03/31 13:09:49;;;;;;;;;2.00;2.00;;;;;9.70;49.53;99903.69;6245327;22;45314;-80
2022/03/31 13:12:17;;;;;;;;;6.00;5.00;;;;;9.61;49.96;99916.97;6218988;22;45296;-80
2022/03/31 13:14:46;;;;;;;;;8.75;7.75;;;;;9.38;50.33;99889.25;6243363;22;46470;-80
2022/03/31 13:17:19;;;;;;;;;7.25;5.50;;;;;9.32;50.50;99893.69;6248974;22;45229;-80
2022/03/31 13:19:47;;;;;;;;;7.00;6.00;;;;;9.23;50.89;99892.06;6243514;22;45364;-79
2022/03/31 13:22:20;;;;;;;;;3.25;3.25;;;;;9.32;50.77;99915.56;6244598;22;45411;-79
2022/03/31 13:24:48;;;;;;;;;5.50;5.50;;;;;9.34;50.42;99911.19;6245551;22;45514;-79
2022/03/31 13:27:15;;;;;;;;;7.75;5.50;;;;;9.43;50.62;99889.16;6217787;22;45246;-79
2022/03/31 13:29:43;;;;;;;;;5.00;5.00;;;;;9.91;50.11;99910.41;6242266;22;45275;-80
2022/03/31 13:32:16;;;;;;;;;6.50;6.50;;;;;10.14;50.22;99902.19;6245183;22;45448;-80
2022/03/31 13:34:46;;;;;;;;;8.00;6.00;;;;;10.41;50.20;99908.78;6245596;22;46210;-80
2022/03/31 13:37:15;;;;;;;;;8.75;6.00;;;;;10.72;50.42;99890.72;6244076;22;45194;-80
2022/03/31 13:40:08;;;;;;;;;8.00;7.50;;;;;11.22;48.40;99867.78;6243034;22;45279;-80
2022/03/31 13:42:43;;;;;;;;;15.50;15.50;;;;;11.85;48.30;99879.63;6242079;22;45286;-80
2022/03/31 13:45:12;;;;;;;;;6.25;6.00;;;;;12.44;46.17;99875.59;6242489;22;47874;-80
2022/03/31 13:47:43;;;;;;;;;6.25;6.25;;;;;12.50;45.88;99864.88;6217734;22;45444;-76
2022/03/31 13:50:26;;;;;;;;;7.75;5.25;;;;;12.52;45.45;99890.34;6218066;22;45344;-81
2022/03/31 13:56:59;;;;;;;;;6.75;5.50;;;;;11.48;44.32;99905.91;6140369;23;45462;-84
2022/03/31 15:22:40;;;;;;;;;5.25;5.00;;;;;16.26;34.82;99858.53;6235758;22;45612;-88
2022/03/31 15:42:45;;;;;;;;;2.00;1.00;;;;;15.98;32.19;99842.00;5958854;23;45377;-88
2022/03/31 15:45:37;;;;;;;;;3.00;3.00;;;;;16.27;33.11;99844.31;5958750;23;45600;-86
2022/03/31 15:48:09;;;;;;;;;1.00;1.00;;;;;16.90;32.30;99827.50;6027456;23;45485;-88
2022/03/31 15:50:37;;;;;;;;;2.00;1.75;;;;;17.26;32.01;99851.56;6093349;23;45386;-89
2022/03/31 15:53:03;;;;;;;;;2.50;2.50;;;;;16.43;31.64;99836.56;6209608;22;45173;-84
2022/03/31 15:56:05;;;;;;;;;5.00;4.00;;;;;15.67;32.47;99851.16;6243323;22;47070;-86
2022/03/31 15:58:40;;;;;;;;;1.00;1.00;;;;;15.15;33.13;99846.03;6220045;22;45383;-87
2022/03/31 16:01:16;;;;;;;;;;;;;;;;;;;;;
2022/03/31 16:11:29;;;;;;;;;2.50;2.50;;;;;16.22;28.91;99842.78;5980333;23;45360;-91
2022/03/31 16:52:38;;;;;;;;;2.50;1.25;;;;;19.87;26.36;99865.03;5845122;24;45481;-88
2022/03/31 16:55:17;;;;;;;;;;;;;;;;;;;;;
2022/03/31 16:57:43;;;;;;;;;1.00;1.00;;;;;17.70;27.21;99883.25;5942677;23;71990;-87
2022/03/31 17:00:09;;;;;;;;;0.00;0.00;;;;;17.49;27.39;99885.13;6140590;23;47190;-87
2022/03/31 17:07:14;;;;;;;;;0.00;0.00;;;;;17.29;28.03;99863.88;6170242;23;45356;-88
2022/03/31 17:22:26;;;;;;;;;2.25;2.25;;;;;17.85;27.61;99874.59;6093980;23;45546;-89
2022/03/31 17:24:52;;;;;;;;;1.00;1.00;;;;;16.90;28.12;99875.38;6235618;22;46191;-84
2022/03/31 17:27:20;;;;;;;;;3.00;3.00;;;;;15.58;29.76;99872.72;6242907;22;45303;-82
2022/03/31 17:30:34;;;;;;;;;2.00;2.00;;;;;14.37;31.53;99890.28;6218061;22;45419;-83
2022/03/31 17:36:03;;;;;;;;;1.25;1.25;;;;;12.29;35.33;99916.44;6238448;22;45922;-82
2022/03/31 17:42:03;;;;;;;;;0.00;0.00;;;;;10.77;40.10;99943.28;6206654;22;45428;-81
2022/03/31 17:45:30;;;;;;;;;2.00;2.00;;;;;10.41;40.25;99955.28;6245405;22;45481;-81
2022/03/31 17:47:56;;;;;;;;;1.00;1.00;;;;;9.80;41.70;99957.00;6242094;22;46991;-82
2022/03/31 17:54:08;;;;;;;;;;;;;;;;;;;;;
2022/03/31 17:56:55;;;;;;;;;;;;;;;;;;;;;
2022/03/31 18:00:13;;;;;;;;;2.00;2.00;;;;;8.09;46.50;99995.34;6247783;22;75204;-80
2022/03/31 18:02:46;;;;;;;;;0.00;0.00;;;;;7.65;48.00;99965.00;6212766;22;45263;-80
2022/03/31 18:06:11;;;;;;;;;;;;;;;;;;;;;
2022/03/31 18:11:52;;;;;;;;;1.50;1.25;;;;;7.39;51.30;100040.19;6151822;23;45298;-80
2022/03/31 18:14:18;;;;;;;;;0.75;0.75;;;;;7.23;50.83;100049.81;6221289;22;45487;-84
2022/03/31 18:21:14;;;;;;;;;1.00;1.00;;;;;6.73;52.11;100022.78;6117091;23;45357;-83
2022/03/31 18:39:17;;;;;;;;;;;;;;;;;;;;;
2022/03/31 18:45:44;;;;;;;;;;;;;;;;;;;;;
2022/03/31 18:49:09;;;;;;;;;1.50;0.50;;;;;6.04;54.53;100067.09;5898625;24;72918;-87
2022/03/31 19:02:14;;;;;;;;;3.00;3.00;;;;;5.94;53.77;100057.47;5909941;24;44904;-90
2022/03/31 19:37:24;;;;;;;;;;;;;;;;;;;;;
2022/03/31 20:25:49;;;;;;;;;1.75;1.75;;;;;5.42;54.66;100178.13;6230414;22;46626;-86
2022/03/31 20:28:36;;;;;;;;;1.75;1.75;;;;;5.47;54.51;100191.22;6291416;22;45426;-85
2022/03/31 20:31:39;;;;;;;;;2.00;2.00;;;;;5.19;54.79;100153.59;6280706;22;45494;-86
2022/03/31 20:34:37;;;;;;;;;1.75;1.75;;;;;5.24;55.00;100168.41;6254074;22;47308;-85
2022/03/31 20:40:29;;;;;;;;;4.00;3.00;;;;;5.44;54.96;100191.19;6198149;22;45554;-89
2022/03/31 20:43:11;;;;;;;;;;;;;;;;;;;;;
2022/03/31 20:46:06;;;;;;;;;3.50;2.75;;;;;5.75;55.33;100221.03;6281164;22;74899;-88
2022/03/31 20:59:02;;;;;;;;;;;;;;;;;;;;;
2022/03/31 21:01:29;;;;;;;;;2.25;2.00;;;;;5.63;54.70;100219.19;6189299;23;74371;-89
2022/03/31 21:03:54;;;;;;;;;0.75;0.75;;;;;5.50;54.36;100212.97;6252800;22;45407;-87
2022/03/31 22:29:30;;;;;;;;;1.00;1.00;;;;;4.83;55.83;100327.97;6240745;22;46022;-88
2022/03/31 22:31:57;;;;;;;;;1.00;0.50;;;;;4.72;56.30;100293.06;6281597;22;45689;-86
2022/03/31 22:34:24;;;;;;;;;1.00;1.00;;;;;4.67;56.12;100294.72;6253837;22;45415;-86
2022/03/31 22:36:51;;;;;;;;;0.75;0.75;;;;;4.69;55.82;100294.75;6281710;22;45182;-84
2022/03/31 22:39:57;;;;;;;;;;;;;;;;;;;;;
2022/03/31 22:42:26;;;;;;;;;1.00;1.00;;;;;4.81;55.72;100301.00;6282211;22;72742;-86
2022/03/31 22:44:54;;;;;;;;;1.00;1.00;;;;;4.80;56.18;100307.06;6251704;22;45338;-86
2022/03/31 22:51:53;;;;;;;;;;;;;;;;;;;;;
2022/03/31 22:54:39;;;;;;;;;0.75;0.75;;;;;4.94;55.80;100322.88;6282740;22;71910;-88
2022/03/31 22:57:27;;;;;;;;;0.75;0.75;;;;;4.92;55.75;100322.00;6254054;22;45359;-87
2022/03/31 22:59:55;;;;;;;;;2.75;1.75;;;;;4.70;55.78;100275.63;6253463;22;45427;-85
2022/03/31 23:02:23;;;;;;;;;1.00;1.00;;;;;4.71;55.85;100274.81;6254649;22;46696;-86
2022/03/31 23:05:00;;;;;;;;;2.00;2.00;;;;;4.95;55.57;100314.22;6280981;22;45315;-84
2022/03/31 23:07:31;;;;;;;;;1.00;1.00;;;;;5.01;55.31;100313.41;6254216;22;45301;-86
2022/03/31 23:10:02;;;;;;;;;1.00;0.00;;;;;4.81;54.98;100272.31;6256796;22;45454;-89
2022/03/31 23:12:45;;;;;;;;;2.25;2.25;;;;;4.94;54.90;100316.78;6256744;22;45495;-87
2022/03/31 23:15:11;;;;;;;;;1.25;0.50;;;;;4.76;54.98;100280.94;6254954;22;45415;-87
2022/03/31 23:17:39;;;;;;;;;0.50;0.50;;;;;4.63;55.01;100262.53;6254738;22;45381;-86
2022/03/31 23:20:06;;;;;;;;;2.50;2.50;;;;;4.67;54.22;100266.06;6283829;22;45469;-86
2022/03/31 23:23:13;;;;;;;;;;;;;;;;;;;;;
2022/03/31 23:29:57;;;;;;;;;;;;;;;;;;;;;
2022/03/31 23:32:23;;;;;;;;;2.75;2.75;;;;;4.82;54.31;100294.94;6249826;22;71861;-86
2022/03/31 23:35:29;;;;;;;;;0.00;0.00;;;;;4.59;54.09;100252.03;6224333;22;46380;-89
2022/03/31 23:46:08;;;;;;;;;2.50;1.75;;;;;4.60;54.42;100264.25;6253760;22;45246;-89
2022/03/31 23:48:45;;;;;;;;;1.25;1.00;;;;;4.63;53.93;100274.72;6259201;22;45748;-89
2022/03/31 23:58:22;;;;;;;;;1.50;1.00;;;;;4.70;54.28;100288.69;6228053;22;44776;-86
